Kezdőlap
METAR-TAF:

METAR-TAF

Repülőterek :

Capital City Airport

Frankfort, Kentucky, Amerikai Egyesült Államok

földrajzi szélesség: 38-11-05N, földrajzi hosszúság: 084-54-12W, magasság: 245 m

Jelenlegi meteorológiai megfigyelések

A jelentés 26 perccel ezelõtt készült, 10:53 UTC
Szélcsend
Hőmérséklet 21°C
Páratartalom 73%
Légköri nyomás 1018 hPa
Látótávolság: 16.1 km
Kevés felhő 6500 lábon
Szakadozott felhőzet 11000 lábon

METAR: KFFT 211053Z AUTO 00000KT 10SM FEW065 BKN110 21/16 A3007 RMK AO2 SLP172 T02060156

Idő: 07:19 (11:19 UTC)


TAF: hiányzik

Meteorológiai megfigyelések és előrejelzések több, mint 4000 repülőtéren (METAR és TAF jelentéseket).

A térképen piros és sárga pontok jelzik az elérhető meteorológiai állomásokat.

Mozgassa az egeret a pont fölött, hogy megjelenjen az állomás neve.

Azután kattintson az időjárási megfigyelések és előrejelzések megtekintéséhez.

A térkép megváltoztatása: kattintson a fekete keresztel jelölt zöld gombra ráközelítéshez, a vonallal jelölt zöld gombra távolításhoz, vagy a zöld nyilakra a szomszédos térképek eléréséhez.


METAR-TAF: